< < Back
Terminal Aerodrome Forecast


Current Version              Previous Versions:   1  2  3  4  5  6  7  8  9  

Terminal Aerodrome Forecast

972
FTUS42 KGSP 311458 AAA
TAFCLT
TAF AMD
KCLT 311458Z 3115/0112 02006KT P6SM SCT030
     FM311700 03005KT P6SM BKN045
      TEMPO 3122/0101 3SM -TSRA BR OVC025CB
     FM010200 04003KT P6SM SCT120=

Latest METAR

397
SAUS70 KWBC 010656
MTRCLT
METAR KCLT 010652Z 30004KT 10SM BKN250 20/18 A3000 RMK AO2 SLP150
T02000183


USA.gov is the U.S. government's official web portal to all federal, state and local government web resources and services.